Time;durP1;ratioP1;P1;durP2;ratioP2;P2;SDS_P1;SDS_P2;PMS_P1;PMS_P2;Temp;Humidity;BMP_temperature;BMP_pressure;BME280_temperature;BME280_humidity;BME280_pressure;Samples;Min_cycle;Max_cycle;Signal;HPM_P1;HPM_P2
2023/09/02 00:01:19;;;;;;;7.35;5.75;;;15.00;99.90;;;;;;4876990;29;20049;-70
2023/09/02 00:03:45;;;;;;;10.73;6.03;;;15.00;99.90;;;;;;4877181;29;20475;-71
2023/09/02 00:06:10;;;;;;;7.60;5.57;;;15.00;99.90;;;;;;4878366;29;20056;-71
2023/09/02 00:08:36;;;;;;;9.30;5.70;;;15.00;99.90;;;;;;4878020;29;20452;-71
2023/09/02 00:11:02;;;;;;;7.40;5.40;;;15.00;99.90;;;;;;4876881;29;20139;-70
2023/09/02 00:13:27;;;;;;;7.80;5.25;;;15.00;99.90;;;;;;4876575;29;20055;-71
2023/09/02 00:15:53;;;;;;;9.35;5.47;;;15.00;99.90;;;;;;4878191;29;20053;-71
2023/09/02 00:18:19;;;;;;;8.48;4.95;;;15.00;99.90;;;;;;4876841;29;20133;-72
2023/09/02 00:20:44;;;;;;;7.70;5.20;;;15.00;99.90;;;;;;4861723;29;20061;-71
2023/09/02 00:23:10;;;;;;;6.93;5.28;;;15.00;99.90;;;;;;4878666;29;20064;-71
2023/09/02 00:25:36;;;;;;;7.07;5.38;;;15.00;99.90;;;;;;4880425;29;20064;-71
2023/09/02 00:28:02;;;;;;;8.35;5.05;;;15.10;99.90;;;;;;4881591;29;20144;-71
2023/09/02 00:30:27;;;;;;;7.80;4.93;;;15.10;99.90;;;;;;4864693;29;20491;-70
2023/09/02 00:32:53;;;;;;;7.00;4.70;;;15.10;99.90;;;;;;4881268;29;20064;-71
2023/09/02 00:35:19;;;;;;;6.57;5.22;;;15.10;99.90;;;;;;4880325;29;20049;-71
2023/09/02 00:37:45;;;;;;;8.30;5.35;;;15.00;99.90;;;;;;4881328;29;20053;-70
2023/09/02 00:40:15;;;;;;;7.13;4.80;;;14.90;99.90;;;;;;4880102;29;20053;-70
2023/09/02 00:42:42;;;;;;;7.97;5.50;;;14.80;99.90;;;;;;4881057;29;20108;-72
2023/09/02 00:45:08;;;;;;;9.75;5.43;;;14.70;99.90;;;;;;4864722;29;20072;-70
2023/09/02 00:47:34;;;;;;;9.20;5.50;;;14.70;99.90;;;;;;4880742;29;20137;-71
2023/09/02 00:50:00;;;;;;;9.63;5.53;;;14.60;99.90;;;;;;4881066;29;20088;-70
2023/09/02 00:52:26;;;;;;;8.15;5.32;;;14.50;99.90;;;;;;4864703;29;20408;-71
2023/09/02 00:54:52;;;;;;;9.63;6.18;;;14.50;99.90;;;;;;4881391;29;20053;-70
2023/09/02 00:57:18;;;;;;;7.05;5.30;;;14.50;99.90;;;;;;4881129;29;20427;-71
2023/09/02 00:59:43;;;;;;;9.88;5.60;;;14.50;99.90;;;;;;4880663;29;20051;-71
2023/09/02 01:02:11;;;;;;;8.55;5.53;;;14.50;99.90;;;;;;4880686;29;20123;-70
2023/09/02 01:04:36;;;;;;;7.22;5.55;;;14.40;99.90;;;;;;4880745;29;20048;-71
2023/09/02 01:07:02;;;;;;;9.40;5.53;;;14.40;99.90;;;;;;4879978;29;20348;-70
2023/09/02 01:09:30;;;;;;;7.60;5.90;;;14.40;99.90;;;;;;4864043;29;20053;-71
2023/09/02 01:11:56;;;;;;;7.63;5.47;;;14.30;99.90;;;;;;4880654;29;20045;-70
2023/09/02 01:14:22;;;;;;;8.52;5.82;;;14.30;99.90;;;;;;4879750;29;20064;-70
2023/09/02 01:16:48;;;;;;;8.90;6.13;;;14.30;99.90;;;;;;4879557;29;20048;-70
2023/09/02 01:19:17;;;;;;;8.30;5.93;;;14.20;99.90;;;;;;4880722;29;20113;-70
2023/09/02 01:22:04;;;;;;;8.27;5.90;;;14.20;99.90;;;;;;4879306;29;20132;-70
2023/09/02 01:24:54;;;;;;;7.53;5.30;;;14.10;99.90;;;;;;4863916;29;20143;-70
2023/09/02 01:27:30;;;;;;;7.82;5.97;;;14.10;99.90;;;;;;4879163;29;20147;-70
2023/09/02 01:30:12;;;;;;;9.32;6.20;;;14.10;99.90;;;;;;4878756;29;20060;-71
2023/09/02 01:32:43;;;;;;;9.15;5.57;;;14.00;99.90;;;;;;4879631;29;20133;-70
2023/09/02 01:35:11;;;;;;;6.53;5.28;;;14.00;99.90;;;;;;4879107;29;20136;-70
2023/09/02 01:37:43;;;;;;;6.63;5.55;;;14.00;99.90;;;;;;4880052;29;20140;-69
2023/09/02 01:40:14;;;;;;;7.00;5.63;;;14.00;99.90;;;;;;4879295;29;20155;-71
2023/09/02 01:42:40;;;;;;;8.38;5.88;;;14.00;99.90;;;;;;4879908;29;20051;-70
2023/09/02 01:45:08;;;;;;;7.40;5.68;;;14.00;99.90;;;;;;4879042;29;20376;-70
2023/09/02 01:47:35;;;;;;;8.60;5.50;;;14.00;99.90;;;;;;4879683;29;20057;-71
2023/09/02 01:50:03;;;;;;;7.57;5.72;;;14.00;99.90;;;;;;4879007;29;20433;-69
2023/09/02 01:52:29;;;;;;;7.65;5.55;;;14.00;99.90;;;;;;4879116;29;20049;-70
2023/09/02 01:54:56;;;;;;;8.00;5.78;;;14.00;99.90;;;;;;4880030;29;20057;-70
2023/09/02 01:57:22;;;;;;;7.93;5.82;;;14.00;99.90;;;;;;4879946;29;20102;-70
2023/09/02 01:59:47;;;;;;;8.00;5.22;;;13.90;99.90;;;;;;4878215;29;20507;-70
2023/09/02 02:02:16;;;;;;;8.95;5.78;;;13.90;99.90;;;;;;4878696;29;20049;-71
2023/09/02 02:04:45;;;;;;;7.72;5.65;;;13.90;99.90;;;;;;4862753;29;20048;-71
2023/09/02 02:07:14;;;;;;;9.57;6.43;;;13.80;99.90;;;;;;4878954;29;20105;-71
2023/09/02 02:09:57;;;;;;;9.57;5.75;;;13.80;99.90;;;;;;4879195;29;20500;-70
2023/09/02 02:12:24;;;;;;;8.35;5.93;;;13.70;99.90;;;;;;4863587;29;20109;-71
2023/09/02 02:14:50;;;;;;;8.85;6.18;;;13.70;99.90;;;;;;4879353;29;20447;-69
2023/09/02 02:17:16;;;;;;;8.52;6.13;;;13.70;99.90;;;;;;4879642;29;20128;-69
2023/09/02 02:19:43;;;;;;;8.43;6.18;;;13.60;99.90;;;;;;4879272;29;20500;-70
2023/09/02 02:22:10;;;;;;;8.75;6.50;;;13.60;99.90;;;;;;4878367;29;20056;-70
2023/09/02 02:24:36;;;;;;;10.13;6.90;;;13.50;99.90;;;;;;4879147;29;20432;-70
2023/09/02 02:27:02;;;;;;;8.68;6.28;;;13.50;99.90;;;;;;4879538;29;20049;-70
2023/09/02 02:29:28;;;;;;;9.85;6.38;;;13.50;99.90;;;;;;4879473;29;20052;-70
2023/09/02 02:31:54;;;;;;;7.85;6.65;;;13.50;99.90;;;;;;4877935;29;20466;-71
2023/09/02 02:34:20;;;;;;;12.00;6.20;;;13.50;99.90;;;;;;4879275;29;20535;-70
2023/09/02 02:36:45;;;;;;;9.07;6.50;;;13.40;99.90;;;;;;4878995;29;20053;-70
2023/09/02 02:39:11;;;;;;;8.70;5.97;;;13.50;99.90;;;;;;4879337;29;20196;-70
2023/09/02 02:41:37;;;;;;;7.43;5.30;;;13.50;99.90;;;;;;4877561;29;20095;-71
2023/09/02 02:44:03;;;;;;;9.13;6.40;;;13.40;99.90;;;;;;4879144;29;20109;-70
2023/09/02 02:46:29;;;;;;;7.60;6.40;;;13.50;99.90;;;;;;4877670;29;20128;-70
2023/09/02 02:48:55;;;;;;;8.52;6.30;;;13.40;99.90;;;;;;4877622;29;20136;-70
2023/09/02 02:51:21;;;;;;;8.65;6.45;;;13.40;99.90;;;;;;4832136;29;20049;-70
2023/09/02 02:53:46;;;;;;;8.95;6.57;;;13.40;99.90;;;;;;4877642;29;20127;-70
2023/09/02 02:56:12;;;;;;;9.15;6.25;;;13.40;99.90;;;;;;4879051;29;20056;-70
2023/09/02 02:58:38;;;;;;;7.50;6.13;;;13.40;99.90;;;;;;4878752;29;20053;-73
2023/09/02 03:01:06;;;;;;;8.52;6.28;;;13.40;99.90;;;;;;4878880;29;20120;-72
2023/09/02 03:03:33;;;;;;;8.00;6.45;;;13.40;99.90;;;;;;4878744;29;20056;-70
2023/09/02 03:06:00;;;;;;;7.35;6.03;;;13.30;99.90;;;;;;4878698;29;20298;-70
2023/09/02 03:08:26;;;;;;;8.75;6.28;;;13.40;99.90;;;;;;4878655;29;20519;-70
2023/09/02 03:11:00;;;;;;;8.90;6.32;;;13.30;99.90;;;;;;4877160;29;20081;-70
2023/09/02 03:13:28;;;;;;;10.32;6.68;;;13.30;99.90;;;;;;4877853;29;20104;-69
2023/09/02 03:15:54;;;;;;;9.80;6.60;;;13.30;99.90;;;;;;4877526;29;20401;-70
2023/09/02 03:18:21;;;;;;;7.15;6.15;;;13.20;99.90;;;;;;4878709;29;20049;-69
2023/09/02 03:20:46;;;;;;;7.80;6.43;;;13.20;99.90;;;;;;4877522;29;20097;-71
2023/09/02 03:23:12;;;;;;;8.27;6.60;;;13.20;99.90;;;;;;4877476;29;20095;-69
2023/09/02 03:25:38;;;;;;;7.90;6.97;;;13.20;99.90;;;;;;4877378;29;20045;-71
2023/09/02 03:28:04;;;;;;;9.15;6.45;;;13.10;99.90;;;;;;4878367;29;20045;-71
2023/09/02 03:30:30;;;;;;;9.23;6.78;;;13.10;99.90;;;;;;4877399;29;20052;-70
2023/09/02 03:32:56;;;;;;;13.30;7.00;;;13.10;99.90;;;;;;4876770;29;20616;-70
2023/09/02 03:35:22;;;;;;;8.55;6.35;;;13.10;99.90;;;;;;4878409;29;20137;-70
2023/09/02 03:37:48;;;;;;;9.65;7.22;;;13.10;99.90;;;;;;4877078;29;20120;-70
2023/09/02 03:40:15;;;;;;;9.85;7.00;;;13.10;99.90;;;;;;4878396;29;20204;-70
2023/09/02 03:42:41;;;;;;;9.38;7.97;;;13.10;99.90;;;;;;4878662;29;20128;-70
2023/09/02 03:45:09;;;;;;;10.35;7.85;;;13.10;99.90;;;;;;4877288;29;20101;-72
2023/09/02 03:47:36;;;;;;;9.98;7.63;;;13.10;99.90;;;;;;4878541;29;20064;-70
2023/09/02 03:50:03;;;;;;;9.68;7.20;;;13.20;99.90;;;;;;4877159;29;20121;-70
2023/09/02 03:52:28;;;;;;;11.82;8.07;;;13.20;99.90;;;;;;4876789;29;20114;-70
2023/09/02 03:54:54;;;;;;;12.05;7.55;;;13.20;99.90;;;;;;4876974;29;20124;-70
2023/09/02 03:57:20;;;;;;;10.27;7.85;;;13.20;99.90;;;;;;4862222;29;20128;-70
2023/09/02 03:59:46;;;;;;;9.52;7.70;;;13.30;99.90;;;;;;4881767;29;20052;-73
2023/09/02 04:02:11;;;;;;;9.25;7.53;;;13.30;99.90;;;;;;4881005;29;20373;-70
2023/09/02 04:04:37;;;;;;;8.57;7.50;;;13.30;99.90;;;;;;4880848;29;20056;-71
2023/09/02 04:07:03;;;;;;;11.85;8.25;;;13.30;99.90;;;;;;4881424;29;20406;-70
2023/09/02 04:09:29;;;;;;;9.27;7.05;;;13.30;99.90;;;;;;4880687;29;20045;-70
2023/09/02 04:11:54;;;;;;;9.73;7.55;;;13.40;99.90;;;;;;4895933;29;20117;-71
2023/09/02 04:14:20;;;;;;;10.80;8.43;;;13.40;99.90;;;;;;4881771;29;20045;-71
2023/09/02 04:16:46;;;;;;;11.45;8.05;;;13.40;99.90;;;;;;4865248;29;20053;-70
2023/09/02 04:19:12;;;;;;;8.70;7.60;;;13.40;99.90;;;;;;4880236;29;20140;-71
2023/09/02 04:21:37;;;;;;;11.88;8.48;;;13.40;99.90;;;;;;4881711;29;20128;-71
2023/09/02 04:24:03;;;;;;;10.70;8.82;;;13.30;99.90;;;;;;4881256;29;20059;-71
2023/09/02 04:26:29;;;;;;;12.15;8.40;;;13.30;99.90;;;;;;4880591;29;20053;-70
2023/09/02 04:28:55;;;;;;;10.43;8.18;;;13.30;99.90;;;;;;4880227;29;20052;-70
2023/09/02 04:31:22;;;;;;;10.55;7.43;;;13.30;99.90;;;;;;4880310;29;20411;-70
2023/09/02 04:33:49;;;;;;;12.63;8.43;;;13.30;99.90;;;;;;4881232;29;20064;-70
2023/09/02 04:36:15;;;;;;;10.35;8.27;;;13.40;99.90;;;;;;4880090;29;20084;-70
2023/09/02 04:38:40;;;;;;;10.95;7.72;;;13.40;99.90;;;;;;4880312;29;20104;-71
2023/09/02 04:41:06;;;;;;;11.27;8.63;;;13.30;99.90;;;;;;4864346;29;20566;-70
2023/09/02 04:43:33;;;;;;;10.23;8.35;;;13.30;99.90;;;;;;4881104;29;20079;-71
2023/09/02 04:46:03;;;;;;;11.77;7.88;;;13.30;99.90;;;;;;4864403;29;20120;-70
2023/09/02 04:48:29;;;;;;;11.13;8.32;;;13.30;99.90;;;;;;4881084;29;20060;-70
2023/09/02 04:50:55;;;;;;;10.35;8.05;;;13.20;99.90;;;;;;4880610;29;20037;-71
2023/09/02 04:53:21;;;;;;;10.43;8.15;;;13.30;99.90;;;;;;4880066;29;20136;-70
2023/09/02 04:55:48;;;;;;;11.77;8.98;;;13.30;99.90;;;;;;4879703;29;20064;-70
2023/09/02 04:58:14;;;;;;;11.13;9.43;;;13.20;99.90;;;;;;4879560;29;20398;-70
2023/09/02 05:00:40;;;;;;;12.35;9.00;;;13.30;99.90;;;;;;4879927;29;20049;-70
2023/09/02 05:03:06;;;;;;;12.73;8.35;;;13.30;99.90;;;;;;4879639;29;20474;-71
2023/09/02 05:05:32;;;;;;;10.25;8.57;;;13.30;99.90;;;;;;4879531;29;20495;-71
2023/09/02 05:07:58;;;;;;;10.82;8.13;;;13.30;99.90;;;;;;4848325;29;20049;-71
2023/09/02 05:10:24;;;;;;;11.73;8.20;;;13.30;99.90;;;;;;4880780;29;20123;-71
2023/09/02 05:12:50;;;;;;;11.98;8.95;;;13.30;99.90;;;;;;4879571;29;20056;-70
2023/09/02 05:15:16;;;;;;;11.30;9.38;;;13.40;99.90;;;;;;4880318;29;20056;-70
2023/09/02 05:17:42;;;;;;;14.40;9.45;;;13.40;99.90;;;;;;4879424;29;20518;-70
2023/09/02 05:20:08;;;;;;;11.18;8.57;;;13.40;99.90;;;;;;4879133;29;20056;-70
2023/09/02 05:22:36;;;;;;;11.07;8.32;;;13.50;99.90;;;;;;4879149;29;20563;-71
2023/09/02 05:25:03;;;;;;;10.63;8.88;;;13.50;99.90;;;;;;4880214;29;20103;-70
2023/09/02 05:27:29;;;;;;;10.60;8.35;;;13.40;99.90;;;;;;4879137;29;20060;-70
2023/09/02 05:29:55;;;;;;;9.63;8.60;;;13.40;99.90;;;;;;4863763;29;20056;-71
2023/09/02 05:32:21;;;;;;;12.38;8.93;;;13.30;99.90;;;;;;4879881;29;20173;-69
2023/09/02 05:34:46;;;;;;;12.13;9.35;;;13.40;99.90;;;;;;4880583;29;20068;-70
2023/09/02 05:37:12;;;;;;;11.50;8.35;;;13.40;99.90;;;;;;4878779;29;20104;-70
2023/09/02 05:39:38;;;;;;;10.48;8.07;;;13.80;99.90;;;;;;4880136;29;20503;-69
2023/09/02 05:42:04;;;;;;;10.23;7.72;;;14.30;99.90;;;;;;4878885;29;20396;-71
2023/09/02 05:44:31;;;;;;;9.20;7.68;;;14.70;99.90;;;;;;4879222;29;20113;-70
2023/09/02 05:46:57;;;;;;;10.85;7.75;;;15.20;99.90;;;;;;4880349;29;20041;-70
2023/09/02 05:49:22;;;;;;;9.90;7.90;;;15.80;99.90;;;;;;4878821;29;20052;-71
2023/09/02 05:51:48;;;;;;;9.52;7.45;;;16.30;99.90;;;;;;4880148;29;20053;-70
2023/09/02 05:54:14;;;;;;;7.75;6.72;;;16.70;99.90;;;;;;4879656;29;20056;-70
2023/09/02 05:56:40;;;;;;;8.20;6.93;;;17.10;99.90;;;;;;4878979;29;20049;-71
2023/09/02 05:59:05;;;;;;;9.13;7.15;;;17.40;99.90;;;;;;4863002;29;20128;-72
2023/09/02 06:01:32;;;;;;;8.98;7.05;;;17.60;99.90;;;;;;4863632;29;20071;-70
2023/09/02 06:03:57;;;;;;;9.07;7.65;;;17.60;99.90;;;;;;4879964;29;20412;-70
2023/09/02 06:06:23;;;;;;;9.63;7.40;;;17.50;99.90;;;;;;4878443;29;20049;-71
2023/09/02 06:08:50;;;;;;;9.43;7.68;;;17.40;99.90;;;;;;4878451;29;20547;-70
2023/09/02 06:11:16;;;;;;;10.55;8.60;;;17.50;99.90;;;;;;4879198;29;20049;-70
2023/09/02 06:13:41;;;;;;;11.93;8.05;;;17.60;99.90;;;;;;4878654;29;20491;-70
2023/09/02 06:16:08;;;;;;;10.88;7.45;;;17.40;99.90;;;;;;4878295;29;20068;-72
2023/09/02 06:18:34;;;;;;;12.20;8.48;;;17.30;99.90;;;;;;4862932;29;20049;-70
2023/09/02 06:21:08;;;;;;;10.60;8.38;;;17.20;99.90;;;;;;4878578;29;20056;-70
2023/09/02 06:23:34;;;;;;;;;;;17.40;99.90;;;;;;4879208;29;20060;-69
2023/09/02 06:26:01;;;;;;;11.55;9.35;;;17.70;99.90;;;;;;4879444;29;20298;-71
2023/09/02 06:28:27;;;;;;;14.93;9.60;;;17.70;99.90;;;;;;4878026;29;20045;-70
2023/09/02 06:30:53;;;;;;;11.40;8.75;;;17.60;99.90;;;;;;4879381;29;20045;-71
2023/09/02 06:33:22;;;;;;;11.40;8.60;;;17.70;99.90;;;;;;4877589;29;20080;-70
2023/09/02 06:35:51;;;;;;;11.50;8.65;;;17.70;99.90;;;;;;4878239;29;20061;-70
2023/09/02 06:38:17;;;;;;;13.13;9.23;;;18.10;99.90;;;;;;4878963;29;20045;-71
2023/09/02 06:40:43;;;;;;;12.35;9.02;;;18.30;99.90;;;;;;4878290;29;20077;-70
2023/09/02 06:43:09;;;;;;;13.18;10.35;;;18.40;99.90;;;;;;4877726;29;20053;-70
2023/09/02 06:45:36;;;;;;;12.57;9.50;;;18.70;99.90;;;;;;4878513;29;20071;-70
2023/09/02 06:48:02;;;;;;;13.02;9.77;;;19.00;99.90;;;;;;4878005;29;20097;-70
2023/09/02 06:50:28;;;;;;;12.23;9.45;;;19.50;99.90;;;;;;4878657;29;20052;-70
2023/09/02 06:52:54;;;;;;;12.05;9.27;;;20.20;99.90;;;;;;4879059;29;20053;-70
2023/09/02 06:55:20;;;;;;;11.52;8.77;;;20.70;99.90;;;;;;4877396;29;20057;-71
2023/09/02 06:57:45;;;;;;;14.80;9.80;;;20.70;99.90;;;;;;4877842;29;20135;-71
2023/09/02 07:00:12;;;;;;;12.23;10.38;;;20.40;99.90;;;;;;4878674;29;20056;-71
2023/09/02 07:02:39;;;;;;;13.30;10.02;;;20.00;99.90;;;;;;4879194;29;20045;-69
2023/09/02 07:05:04;;;;;;;13.95;9.40;;;19.70;99.90;;;;;;4862527;29;20133;-71
2023/09/02 07:07:30;;;;;;;12.13;9.98;;;19.50;99.90;;;;;;4877412;29;20484;-71
2023/09/02 07:09:57;;;;;;;11.68;9.50;;;19.50;99.90;;;;;;4877802;29;20057;-71
2023/09/02 07:12:27;;;;;;;14.30;9.88;;;19.40;99.90;;;;;;4877352;29;20088;-70
2023/09/02 07:14:52;;;;;;;11.63;9.15;;;19.20;99.90;;;;;;4877893;29;20131;-71
2023/09/02 07:17:18;;;;;;;11.35;8.60;;;19.10;99.90;;;;;;4877421;29;20188;-71
2023/09/02 07:19:44;;;;;;;15.85;9.48;;;19.00;99.90;;;;;;4878716;29;20135;-70
2023/09/02 07:22:10;;;;;;;11.55;9.48;;;19.20;99.90;;;;;;4877240;29;20041;-72
2023/09/02 07:24:35;;;;;;;12.48;9.35;;;19.90;99.90;;;;;;4878397;29;20135;-70
2023/09/02 07:27:01;;;;;;;12.82;8.15;;;20.80;99.90;;;;;;4862617;29;20084;-70
2023/09/02 07:29:28;;;;;;;11.15;8.07;;;21.70;99.90;;;;;;4861821;29;20052;-71
2023/09/02 07:31:55;;;;;;;11.07;7.90;;;22.30;99.90;;;;;;4877252;29;20108;-70
2023/09/02 07:34:21;;;;;;;10.50;7.82;;;22.50;99.90;;;;;;4876934;29;20052;-70
2023/09/02 07:36:46;;;;;;;12.02;8.32;;;22.20;99.90;;;;;;4878626;29;20056;-70
2023/09/02 07:39:14;;;;;;;11.15;8.27;;;21.90;99.90;;;;;;4877459;29;20059;-70
2023/09/02 07:41:40;;;;;;;12.45;8.63;;;21.60;99.90;;;;;;4878479;29;20052;-70
2023/09/02 07:44:06;;;;;;;14.35;9.00;;;21.40;99.90;;;;;;4862078;29;20057;-70
2023/09/02 07:46:31;;;;;;;13.27;9.10;;;21.70;99.90;;;;;;4878395;29;20049;-70
2023/09/02 07:48:57;;;;;;;12.57;8.63;;;22.30;99.90;;;;;;4878934;29;20136;-69
2023/09/02 07:51:23;;;;;;;13.73;8.13;;;23.00;99.90;;;;;;4877697;29;20080;-68
2023/09/02 07:53:48;;;;;;;10.93;8.02;;;23.60;99.90;;;;;;4878701;29;20547;-71
2023/09/02 07:56:14;;;;;;;10.82;8.40;;;23.90;99.90;;;;;;4878444;29;20488;-70
2023/09/02 07:58:42;;;;;;;9.48;7.55;;;24.30;99.90;;;;;;4878444;29;20132;-71
2023/09/02 08:01:08;;;;;;;11.75;7.35;;;24.70;99.90;;;;;;4877178;29;20391;-71
2023/09/02 08:03:34;;;;;;;9.65;7.38;;;24.90;99.90;;;;;;4877111;29;20049;-72
2023/09/02 08:06:08;;;;;;;9.63;7.35;;;25.50;99.90;;;;;;4878299;29;20049;-70
2023/09/02 08:08:34;;;;;;;9.27;7.03;;;25.90;99.90;;;;;;4876933;29;20375;-71
2023/09/02 08:11:04;;;;;;;10.05;6.75;;;26.50;99.90;;;;;;4876969;29;20056;-70
2023/09/02 08:13:30;;;;;;;9.63;6.90;;;27.20;99.90;;;;;;4877936;29;20064;-70
2023/09/02 08:15:56;;;;;;;10.73;7.47;;;27.50;99.30;;;;;;4878271;29;20056;-70
2023/09/02 08:18:22;;;;;;;8.02;6.72;;;27.90;98.90;;;;;;4877916;29;20056;-71
2023/09/02 08:20:48;;;;;;;9.73;6.47;;;28.00;97.30;;;;;;4878133;29;20052;-69
2023/09/02 08:23:14;;;;;;;10.98;7.70;;;28.20;97.80;;;;;;4878265;29;20049;-70
2023/09/02 08:25:39;;;;;;;9.57;6.50;;;28.40;97.80;;;;;;4877944;29;20131;-70
2023/09/02 08:28:05;;;;;;;10.48;6.30;;;28.50;97.40;;;;;;4878241;29;20077;-70
2023/09/02 08:30:31;;;;;;;10.63;5.80;;;28.70;97.40;;;;;;4877701;29;20143;-70
2023/09/02 08:32:57;;;;;;;9.38;5.70;;;29.00;96.90;;;;;;4877949;29;20049;-70
2023/09/02 08:35:23;;;;;;;8.48;5.97;;;29.10;96.80;;;;;;4846243;29;20064;-70
2023/09/02 08:37:51;;;;;;;8.95;5.68;;;29.00;96.80;;;;;;4876817;29;20487;-70
2023/09/02 08:40:17;;;;;;;7.97;5.18;;;28.80;96.10;;;;;;4877992;29;20053;-69
2023/09/02 08:42:46;;;;;;;8.93;6.20;;;28.60;96.20;;;;;;4877643;29;20066;-70
2023/09/02 08:45:13;;;;;;;9.35;6.28;;;28.70;96.00;;;;;;4880219;29;20096;-71
2023/09/02 08:47:40;;;;;;;9.18;6.53;;;28.70;95.70;;;;;;4881063;29;20105;-70
2023/09/02 08:50:09;;;;;;;7.65;5.88;;;28.90;95.80;;;;;;4881335;29;20067;-70
2023/09/02 08:52:36;;;;;;;10.35;6.10;;;28.80;95.10;;;;;;4880727;29;20483;-70
2023/09/02 08:55:03;;;;;;;9.15;6.30;;;28.60;95.40;;;;;;4880214;29;20165;-69
2023/09/02 08:57:29;;;;;;;9.82;5.90;;;28.60;95.50;;;;;;4879734;29;20420;-70
2023/09/02 08:59:54;;;;;;;9.95;5.80;;;28.60;95.80;;;;;;4880057;29;20048;-70
2023/09/02 09:02:21;;;;;;;7.30;6.18;;;29.00;95.60;;;;;;4880884;29;20204;-69
2023/09/02 09:04:48;;;;;;;7.78;6.30;;;29.20;95.30;;;;;;4879678;29;20401;-70
2023/09/02 09:07:17;;;;;;;10.73;6.75;;;29.20;95.30;;;;;;4880862;29;20053;-71
2023/09/02 09:09:45;;;;;;;9.10;6.97;;;29.20;95.20;;;;;;4879535;29;20056;-71
2023/09/02 09:12:13;;;;;;;7.93;6.07;;;29.50;95.50;;;;;;4880909;29;20060;-70
2023/09/02 09:14:45;;;;;;;8.05;6.22;;;29.70;95.20;;;;;;4880580;29;20408;-70
2023/09/02 09:17:12;;;;;;;9.88;6.53;;;30.00;94.90;;;;;;4880996;29;20112;-70
2023/09/02 09:19:39;;;;;;;9.02;6.55;;;30.00;95.10;;;;;;4880049;29;20512;-70
2023/09/02 09:22:05;;;;;;;9.80;6.45;;;29.80;95.00;;;;;;4879522;29;20097;-70
2023/09/02 09:24:30;;;;;;;10.77;6.53;;;29.60;94.80;;;;;;4880277;29;20148;-70
2023/09/02 09:26:59;;;;;;;10.77;6.85;;;29.50;95.10;;;;;;4880929;29;20475;-70
2023/09/02 09:29:25;;;;;;;9.25;6.38;;;29.00;95.10;;;;;;4880461;29;20212;-71
2023/09/02 09:32:07;;;;;;;9.20;6.05;;;28.30;95.10;;;;;;4878933;29;20136;-70
2023/09/02 09:34:44;;;;;;;10.13;6.22;;;27.70;95.00;;;;;;4880204;29;20084;-70
2023/09/02 09:37:10;;;;;;;10.35;6.53;;;27.10;95.50;;;;;;4879491;29;20385;-70
2023/09/02 09:39:40;;;;;;;10.35;6.43;;;26.80;96.40;;;;;;4863657;29;20057;-71
2023/09/02 09:42:06;;;;;;;10.00;6.50;;;26.50;96.40;;;;;;4879894;29;20124;-69
2023/09/02 09:44:31;;;;;;;9.27;6.40;;;26.30;96.70;;;;;;4880003;29;20131;-69
2023/09/02 09:46:57;;;;;;;10.60;6.10;;;26.30;96.50;;;;;;4879006;29;20064;-70
2023/09/02 09:49:25;;;;;;;10.88;6.40;;;26.30;96.60;;;;;;4880128;29;20062;-70
2023/09/02 09:52:08;;;;;;;8.82;6.35;;;26.20;96.50;;;;;;4878621;29;20055;-70
2023/09/02 09:54:38;;;;;;;10.27;7.15;;;26.10;96.70;;;;;;4879259;29;20082;-71
2023/09/02 09:57:08;;;;;;;10.05;7.30;;;25.90;96.70;;;;;;4879506;29;20506;-71
2023/09/02 09:59:35;;;;;;;9.65;5.75;;;25.60;97.00;;;;;;4878629;29;20372;-71
2023/09/02 10:02:05;;;;;;;9.70;5.80;;;25.40;97.30;;;;;;4878974;29;20053;-71
2023/09/02 10:04:32;;;;;;;10.55;5.50;;;25.30;97.30;;;;;;4878860;29;20040;-71
2023/09/02 10:07:02;;;;;;;9.05;5.90;;;25.10;97.50;;;;;;4878585;29;20045;-70
2023/09/02 10:09:45;;;;;;;9.07;5.88;;;24.90;97.60;;;;;;4878731;29;20053;-71
2023/09/02 10:12:12;;;;;;;9.18;5.60;;;24.50;97.70;;;;;;4878400;29;20053;-70
2023/09/02 10:14:42;;;;;;;12.77;5.85;;;24.30;98.10;;;;;;4879315;29;20412;-70
2023/09/02 10:17:09;;;;;;;9.85;6.22;;;24.10;98.50;;;;;;4879813;29;20049;-69
2023/09/02 10:19:36;;;;;;;11.80;6.07;;;24.00;98.50;;;;;;4879370;29;20385;-71
2023/09/02 10:22:03;;;;;;;8.80;6.13;;;23.90;98.60;;;;;;4863021;29;20131;-69
2023/09/02 10:24:33;;;;;;;7.40;5.68;;;24.10;98.60;;;;;;4879568;29;20456;-71
2023/09/02 10:27:00;;;;;;;10.00;5.65;;;24.20;98.80;;;;;;4878029;29;20475;-70
2023/09/02 10:29:32;;;;;;;8.20;5.38;;;24.30;99.00;;;;;;4879501;29;20045;-70
2023/09/02 10:32:06;;;;;;;8.02;5.38;;;24.40;99.20;;;;;;4879044;29;20041;-70
2023/09/02 10:34:41;;;;;;;7.53;5.03;;;24.20;98.90;;;;;;4879267;29;20069;-71
2023/09/02 10:37:13;;;;;;;9.32;5.05;;;24.20;99.40;;;;;;4878378;29;20052;-70
2023/09/02 10:39:48;;;;;;;7.50;5.20;;;24.30;99.10;;;;;;4877800;29;20072;-70
2023/09/02 10:42:15;;;;;;;10.55;5.10;;;24.20;98.90;;;;;;4878316;29;20451;-71
2023/09/02 10:44:42;;;;;;;8.55;4.93;;;24.00;98.80;;;;;;4877919;29;20088;-70
2023/09/02 10:47:08;;;;;;;7.85;4.78;;;23.90;98.70;;;;;;4878956;29;20109;-70
2023/09/02 10:49:35;;;;;;;9.43;5.40;;;23.90;99.00;;;;;;4878047;29;20044;-70
2023/09/02 10:52:02;;;;;;;7.10;5.25;;;23.90;99.80;;;;;;4878581;29;20057;-71
2023/09/02 10:55:02;;;;;;;9.75;5.50;;;23.90;99.50;;;;;;4862570;29;20064;-70
2023/09/02 10:57:43;;;;;;;7.57;4.90;;;23.90;99.40;;;;;;4877821;29;20057;-70
2023/09/02 11:00:11;;;;;;;7.32;5.15;;;24.00;99.20;;;;;;4877769;29;20057;-71
2023/09/02 11:02:42;;;;;;;10.32;6.00;;;24.10;99.50;;;;;;4877884;29;20574;-70
2023/09/02 11:05:08;;;;;;;9.45;5.70;;;24.20;99.50;;;;;;4878015;29;20060;-70
2023/09/02 11:07:34;;;;;;;7.97;5.03;;;24.10;99.30;;;;;;4846702;29;20148;-70
2023/09/02 11:10:01;;;;;;;9.43;5.15;;;24.10;99.50;;;;;;4878577;29;20265;-71
2023/09/02 11:12:27;;;;;;;7.55;4.60;;;24.00;99.00;;;;;;4877269;29;20399;-70
2023/09/02 11:15:08;;;;;;;8.10;5.10;;;23.90;99.00;;;;;;4878383;29;20049;-71
2023/09/02 11:17:34;;;;;;;7.55;4.93;;;24.10;99.10;;;;;;4878703;29;20053;-71
2023/09/02 11:20:02;;;;;;;6.75;4.63;;;24.00;99.10;;;;;;4861958;29;20448;-70
2023/09/02 11:23:09;;;;;;;7.70;4.80;;;24.00;99.00;;;;;;4878719;29;20116;-70
2023/09/02 11:25:37;;;;;;;9.93;4.70;;;23.90;98.20;;;;;;4878778;29;20053;-70
2023/09/02 11:28:23;;;;;;;9.38;4.40;;;23.80;98.50;;;;;;4878362;29;20128;-70
2023/09/02 11:31:12;;;;;;;9.05;4.93;;;23.80;98.40;;;;;;4865152;29;20140;-70
2023/09/02 11:33:46;;;;;;;8.23;4.65;;;23.80;98.70;;;;;;4878448;29;20091;-70
2023/09/02 11:36:13;;;;;;;;;;;23.90;98.60;;;;;;4862348;29;20096;-71
2023/09/02 11:38:39;;;;;;;7.32;3.78;;;24.10;98.90;;;;;;4878647;29;19924;-71
2023/09/02 11:41:07;;;;;;;6.03;4.18;;;24.20;99.60;;;;;;4878044;29;20132;-70
2023/09/02 11:43:33;;;;;;;7.82;3.65;;;24.20;99.50;;;;;;4877597;29;20047;-71
2023/09/02 11:46:01;;;;;;;4.35;3.10;;;24.40;99.60;;;;;;4877135;29;20076;-71
2023/09/02 11:48:28;;;;;;;5.78;3.53;;;24.30;99.60;;;;;;4878468;29;20053;-70
2023/09/02 11:50:58;;;;;;;5.70;3.50;;;24.00;99.50;;;;;;4876630;29;20124;-70
2023/09/02 11:53:25;;;;;;;7.18;3.83;;;23.80;99.80;;;;;;4878191;29;20052;-70
2023/09/02 11:55:50;;;;;;;6.82;3.60;;;23.60;99.90;;;;;;4877098;29;20427;-71
2023/09/02 11:58:18;;;;;;;7.00;3.50;;;23.40;99.90;;;;;;4877066;29;20048;-70
2023/09/02 12:00:45;;;;;;;5.63;2.65;;;23.30;99.90;;;;;;4862100;29;20406;-70
2023/09/02 12:03:13;;;;;;;9.02;3.15;;;23.40;99.90;;;;;;4877964;29;20451;-70
2023/09/02 12:05:57;;;;;;;6.85;3.20;;;23.50;99.90;;;;;;4878972;29;20053;-70
2023/09/02 12:08:30;;;;;;;5.43;3.00;;;23.50;99.90;;;;;;4878647;29;20056;-70
2023/09/02 12:10:56;;;;;;;5.25;2.90;;;23.30;99.90;;;;;;4876828;29;20559;-71
2023/09/02 12:13:22;;;;;;;6.53;3.50;;;23.40;99.90;;;;;;4878290;29;20041;-70
2023/09/02 12:15:52;;;;;;;7.45;3.05;;;23.40;99.90;;;;;;4878277;29;20093;-71
2023/09/02 12:18:20;;;;;;;6.55;2.80;;;23.40;99.90;;;;;;4878858;29;20060;-71
2023/09/02 12:20:46;;;;;;;4.43;2.53;;;23.30;99.90;;;;;;4880974;29;20064;-70
2023/09/02 12:23:12;;;;;;;6.93;3.15;;;23.20;99.90;;;;;;4881266;29;20055;-70
2023/09/02 12:25:39;;;;;;;6.30;2.88;;;23.20;99.90;;;;;;4881535;29;20131;-70
2023/09/02 12:28:09;;;;;;;5.18;2.55;;;23.40;99.90;;;;;;4880177;29;20053;-71
2023/09/02 12:30:36;;;;;;;5.82;2.70;;;23.50;99.90;;;;;;4880514;29;20156;-71
2023/09/02 12:33:03;;;;;;;6.03;3.08;;;23.70;99.90;;;;;;4864503;29;20491;-71
2023/09/02 12:35:29;;;;;;;4.47;2.55;;;23.50;99.80;;;;;;4880216;29;20411;-71
2023/09/02 12:38:05;;;;;;;4.82;3.05;;;23.40;99.90;;;;;;4880065;29;20057;-70
2023/09/02 12:40:32;;;;;;;4.15;2.80;;;23.30;99.90;;;;;;4881321;29;20503;-71
2023/09/02 12:42:59;;;;;;;4.85;2.70;;;23.20;99.90;;;;;;4881366;29;20060;-72
2023/09/02 12:45:28;;;;;;;5.00;2.53;;;23.10;99.90;;;;;;4881390;29;20104;-72